sensor_id;sensor_type;location;lat;lon;timestamp;P1;durP1;ratioP1;P2;durP2;ratioP2
26530;SDS011;14201;43.188;24.160;2024-03-22T00:02:09;13.40;;;7.88;;
26530;SDS011;14201;43.188;24.160;2024-03-22T00:04:37;10.75;;;6.85;;
26530;SDS011;14201;43.188;24.160;2024-03-22T00:07:03;9.07;;;6.65;;
26530;SDS011;14201;43.188;24.160;2024-03-22T00:09:29;15.52;;;8.07;;
26530;SDS011;14201;43.188;24.160;2024-03-22T00:11:54;11.75;;;6.70;;
26530;SDS011;14201;43.188;24.160;2024-03-22T00:14:20;8.75;;;5.35;;
26530;SDS011;14201;43.188;24.160;2024-03-22T00:16:45;12.50;;;8.23;;
26530;SDS011;14201;43.188;24.160;2024-03-22T00:19:11;17.63;;;9.82;;
26530;SDS011;14201;43.188;24.160;2024-03-22T00:21:37;14.48;;;9.15;;
26530;SDS011;14201;43.188;24.160;2024-03-22T00:24:02;14.10;;;9.40;;
26530;SDS011;14201;43.188;24.160;2024-03-22T00:26:28;18.65;;;9.05;;
26530;SDS011;14201;43.188;24.160;2024-03-22T00:28:54;12.38;;;8.65;;
26530;SDS011;14201;43.188;24.160;2024-03-22T00:31:20;15.05;;;8.70;;
26530;SDS011;14201;43.188;24.160;2024-03-22T00:33:45;13.13;;;8.90;;
26530;SDS011;14201;43.188;24.160;2024-03-22T00:36:11;14.02;;;8.32;;
26530;SDS011;14201;43.188;24.160;2024-03-22T00:38:36;13.20;;;8.20;;
26530;SDS011;14201;43.188;24.160;2024-03-22T00:41:02;14.02;;;8.30;;
26530;SDS011;14201;43.188;24.160;2024-03-22T00:43:28;13.55;;;7.90;;
26530;SDS011;14201;43.188;24.160;2024-03-22T00:45:53;12.63;;;8.23;;
26530;SDS011;14201;43.188;24.160;2024-03-22T00:48:19;17.35;;;9.20;;
26530;SDS011;14201;43.188;24.160;2024-03-22T00:50:44;15.57;;;9.20;;
26530;SDS011;14201;43.188;24.160;2024-03-22T00:53:10;13.48;;;8.20;;
26530;SDS011;14201;43.188;24.160;2024-03-22T00:55:36;16.27;;;8.93;;
26530;SDS011;14201;43.188;24.160;2024-03-22T00:58:02;12.88;;;9.57;;
26530;SDS011;14201;43.188;24.160;2024-03-22T01:00:28;16.55;;;9.43;;
26530;SDS011;14201;43.188;24.160;2024-03-22T01:02:53;13.93;;;8.90;;
26530;SDS011;14201;43.188;24.160;2024-03-22T01:05:19;16.92;;;10.05;;
26530;SDS011;14201;43.188;24.160;2024-03-22T01:07:45;15.02;;;9.40;;
26530;SDS011;14201;43.188;24.160;2024-03-22T01:10:11;15.00;;;8.88;;
26530;SDS011;14201;43.188;24.160;2024-03-22T01:12:37;15.27;;;9.13;;
26530;SDS011;14201;43.188;24.160;2024-03-22T01:15:04;16.13;;;9.80;;
26530;SDS011;14201;43.188;24.160;2024-03-22T01:17:34;15.05;;;8.82;;
26530;SDS011;14201;43.188;24.160;2024-03-22T01:19:59;14.70;;;9.63;;
26530;SDS011;14201;43.188;24.160;2024-03-22T01:22:25;13.60;;;8.55;;
26530;SDS011;14201;43.188;24.160;2024-03-22T01:24:51;12.65;;;9.15;;
26530;SDS011;14201;43.188;24.160;2024-03-22T01:27:16;15.85;;;9.73;;
26530;SDS011;14201;43.188;24.160;2024-03-22T01:29:42;17.15;;;10.40;;
26530;SDS011;14201;43.188;24.160;2024-03-22T01:32:08;16.40;;;10.20;;
26530;SDS011;14201;43.188;24.160;2024-03-22T01:34:33;11.90;;;7.53;;
26530;SDS011;14201;43.188;24.160;2024-03-22T01:37:00;14.40;;;7.82;;
26530;SDS011;14201;43.188;24.160;2024-03-22T01:39:25;12.90;;;8.52;;
26530;SDS011;14201;43.188;24.160;2024-03-22T01:41:51;14.07;;;8.25;;
26530;SDS011;14201;43.188;24.160;2024-03-22T01:44:17;12.50;;;8.45;;
26530;SDS011;14201;43.188;24.160;2024-03-22T01:46:43;13.93;;;8.95;;
26530;SDS011;14201;43.188;24.160;2024-03-22T01:49:10;15.13;;;9.20;;
26530;SDS011;14201;43.188;24.160;2024-03-22T01:51:39;14.55;;;9.38;;
26530;SDS011;14201;43.188;24.160;2024-03-22T01:54:05;14.68;;;9.55;;
26530;SDS011;14201;43.188;24.160;2024-03-22T01:56:36;12.68;;;7.53;;
26530;SDS011;14201;43.188;24.160;2024-03-22T01:59:02;12.07;;;8.35;;
26530;SDS011;14201;43.188;24.160;2024-03-22T02:01:29;14.57;;;7.40;;
26530;SDS011;14201;43.188;24.160;2024-03-22T02:03:55;14.82;;;8.52;;
26530;SDS011;14201;43.188;24.160;2024-03-22T02:06:20;14.95;;;8.95;;
26530;SDS011;14201;43.188;24.160;2024-03-22T02:08:46;17.02;;;8.77;;
26530;SDS011;14201;43.188;24.160;2024-03-22T02:11:11;13.50;;;8.50;;
26530;SDS011;14201;43.188;24.160;2024-03-22T02:13:37;17.33;;;9.32;;
26530;SDS011;14201;43.188;24.160;2024-03-22T02:16:03;15.98;;;9.02;;
26530;SDS011;14201;43.188;24.160;2024-03-22T02:18:29;18.60;;;9.05;;
26530;SDS011;14201;43.188;24.160;2024-03-22T02:20:56;16.25;;;9.25;;
26530;SDS011;14201;43.188;24.160;2024-03-22T02:23:34;15.25;;;9.30;;
26530;SDS011;14201;43.188;24.160;2024-03-22T02:26:01;12.32;;;8.55;;
26530;SDS011;14201;43.188;24.160;2024-03-22T02:28:28;12.70;;;8.73;;
26530;SDS011;14201;43.188;24.160;2024-03-22T02:30:53;14.35;;;8.77;;
26530;SDS011;14201;43.188;24.160;2024-03-22T02:33:19;12.95;;;8.15;;
26530;SDS011;14201;43.188;24.160;2024-03-22T02:35:48;11.43;;;8.48;;
26530;SDS011;14201;43.188;24.160;2024-03-22T02:38:14;12.30;;;8.50;;
26530;SDS011;14201;43.188;24.160;2024-03-22T02:40:40;12.77;;;8.75;;
26530;SDS011;14201;43.188;24.160;2024-03-22T02:43:06;13.43;;;8.82;;
26530;SDS011;14201;43.188;24.160;2024-03-22T02:45:31;14.77;;;8.57;;
26530;SDS011;14201;43.188;24.160;2024-03-22T02:47:57;13.10;;;8.77;;
26530;SDS011;14201;43.188;24.160;2024-03-22T02:50:23;11.98;;;8.20;;
26530;SDS011;14201;43.188;24.160;2024-03-22T02:52:49;12.40;;;8.43;;
26530;SDS011;14201;43.188;24.160;2024-03-22T02:55:15;13.90;;;9.18;;
26530;SDS011;14201;43.188;24.160;2024-03-22T02:57:41;12.00;;;8.60;;
26530;SDS011;14201;43.188;24.160;2024-03-22T03:00:07;13.27;;;8.27;;
26530;SDS011;14201;43.188;24.160;2024-03-22T03:02:33;13.00;;;8.80;;
26530;SDS011;14201;43.188;24.160;2024-03-22T03:04:58;14.48;;;8.30;;
26530;SDS011;14201;43.188;24.160;2024-03-22T03:07:24;12.70;;;8.25;;
26530;SDS011;14201;43.188;24.160;2024-03-22T03:09:50;13.77;;;9.10;;
26530;SDS011;14201;43.188;24.160;2024-03-22T03:12:16;15.32;;;8.65;;
26530;SDS011;14201;43.188;24.160;2024-03-22T03:14:42;13.05;;;8.00;;
26530;SDS011;14201;43.188;24.160;2024-03-22T03:17:07;12.27;;;8.15;;
26530;SDS011;14201;43.188;24.160;2024-03-22T03:19:33;16.08;;;9.10;;
26530;SDS011;14201;43.188;24.160;2024-03-22T03:21:59;13.82;;;8.50;;
26530;SDS011;14201;43.188;24.160;2024-03-22T03:24:24;14.85;;;9.15;;
26530;SDS011;14201;43.188;24.160;2024-03-22T03:26:50;13.65;;;8.57;;
26530;SDS011;14201;43.188;24.160;2024-03-22T03:29:15;15.05;;;8.32;;
26530;SDS011;14201;43.188;24.160;2024-03-22T03:31:41;12.45;;;8.55;;
26530;SDS011;14201;43.188;24.160;2024-03-22T03:34:07;19.58;;;9.80;;
26530;SDS011;14201;43.188;24.160;2024-03-22T03:36:32;13.35;;;8.73;;
26530;SDS011;14201;43.188;24.160;2024-03-22T03:38:58;13.07;;;8.77;;
26530;SDS011;14201;43.188;24.160;2024-03-22T03:41:23;18.05;;;8.93;;
26530;SDS011;14201;43.188;24.160;2024-03-22T03:43:49;15.10;;;8.88;;
26530;SDS011;14201;43.188;24.160;2024-03-22T03:46:14;16.08;;;9.00;;
26530;SDS011;14201;43.188;24.160;2024-03-22T03:48:40;16.02;;;8.90;;
26530;SDS011;14201;43.188;24.160;2024-03-22T03:51:05;12.95;;;8.98;;
26530;SDS011;14201;43.188;24.160;2024-03-22T03:53:31;12.20;;;8.80;;
26530;SDS011;14201;43.188;24.160;2024-03-22T03:55:56;13.27;;;8.05;;
26530;SDS011;14201;43.188;24.160;2024-03-22T03:58:22;12.68;;;8.32;;
26530;SDS011;14201;43.188;24.160;2024-03-22T04:00:48;14.25;;;8.43;;
26530;SDS011;14201;43.188;24.160;2024-03-22T04:03:13;11.65;;;7.70;;
26530;SDS011;14201;43.188;24.160;2024-03-22T04:05:39;12.63;;;8.15;;
26530;SDS011;14201;43.188;24.160;2024-03-22T04:08:05;12.07;;;8.10;;
26530;SDS011;14201;43.188;24.160;2024-03-22T04:10:31;11.80;;;8.10;;
26530;SDS011;14201;43.188;24.160;2024-03-22T04:12:57;12.98;;;7.93;;
26530;SDS011;14201;43.188;24.160;2024-03-22T04:15:23;11.40;;;7.97;;
26530;SDS011;14201;43.188;24.160;2024-03-22T04:17:48;11.95;;;8.20;;
26530;SDS011;14201;43.188;24.160;2024-03-22T04:20:14;11.20;;;7.70;;
26530;SDS011;14201;43.188;24.160;2024-03-22T04:22:40;15.13;;;7.93;;
26530;SDS011;14201;43.188;24.160;2024-03-22T04:25:06;14.02;;;8.32;;
26530;SDS011;14201;43.188;24.160;2024-03-22T04:27:31;15.27;;;8.60;;
26530;SDS011;14201;43.188;24.160;2024-03-22T04:29:57;13.05;;;9.10;;
26530;SDS011;14201;43.188;24.160;2024-03-22T04:32:23;14.80;;;8.95;;
26530;SDS011;14201;43.188;24.160;2024-03-22T04:34:49;12.60;;;8.65;;
26530;SDS011;14201;43.188;24.160;2024-03-22T04:37:14;13.13;;;8.07;;
26530;SDS011;14201;43.188;24.160;2024-03-22T04:39:40;14.63;;;8.18;;
26530;SDS011;14201;43.188;24.160;2024-03-22T04:42:06;11.80;;;7.43;;
26530;SDS011;14201;43.188;24.160;2024-03-22T04:44:32;12.27;;;7.70;;
26530;SDS011;14201;43.188;24.160;2024-03-22T04:46:57;12.25;;;8.30;;
26530;SDS011;14201;43.188;24.160;2024-03-22T04:49:24;12.45;;;8.32;;
26530;SDS011;14201;43.188;24.160;2024-03-22T04:51:49;10.43;;;7.45;;
26530;SDS011;14201;43.188;24.160;2024-03-22T04:54:15;12.75;;;8.80;;
26530;SDS011;14201;43.188;24.160;2024-03-22T04:56:41;11.82;;;7.63;;
26530;SDS011;14201;43.188;24.160;2024-03-22T04:59:06;12.30;;;7.60;;
26530;SDS011;14201;43.188;24.160;2024-03-22T05:01:32;12.77;;;8.73;;
26530;SDS011;14201;43.188;24.160;2024-03-22T05:03:57;11.80;;;8.18;;
26530;SDS011;14201;43.188;24.160;2024-03-22T05:06:23;13.30;;;8.15;;
26530;SDS011;14201;43.188;24.160;2024-03-22T05:08:49;15.23;;;8.05;;
26530;SDS011;14201;43.188;24.160;2024-03-22T05:11:15;13.93;;;7.80;;
26530;SDS011;14201;43.188;24.160;2024-03-22T05:13:40;13.93;;;8.52;;
26530;SDS011;14201;43.188;24.160;2024-03-22T05:16:06;13.65;;;8.13;;
26530;SDS011;14201;43.188;24.160;2024-03-22T05:18:32;17.48;;;7.65;;
26530;SDS011;14201;43.188;24.160;2024-03-22T05:20:58;13.77;;;7.80;;
26530;SDS011;14201;43.188;24.160;2024-03-22T05:23:23;12.32;;;8.07;;
26530;SDS011;14201;43.188;24.160;2024-03-22T05:25:49;11.65;;;7.72;;
26530;SDS011;14201;43.188;24.160;2024-03-22T05:28:15;14.32;;;8.23;;
26530;SDS011;14201;43.188;24.160;2024-03-22T05:30:40;12.32;;;7.70;;
26530;SDS011;14201;43.188;24.160;2024-03-22T05:33:06;15.32;;;8.63;;
26530;SDS011;14201;43.188;24.160;2024-03-22T05:35:31;11.38;;;7.07;;
26530;SDS011;14201;43.188;24.160;2024-03-22T05:37:57;55.58;;;37.10;;
26530;SDS011;14201;43.188;24.160;2024-03-22T05:40:23;38.60;;;24.02;;
26530;SDS011;14201;43.188;24.160;2024-03-22T05:42:48;24.25;;;14.52;;
26530;SDS011;14201;43.188;24.160;2024-03-22T05:45:14;22.85;;;14.90;;
26530;SDS011;14201;43.188;24.160;2024-03-22T05:47:40;10.43;;;7.43;;
26530;SDS011;14201;43.188;24.160;2024-03-22T05:50:05;14.60;;;7.45;;
26530;SDS011;14201;43.188;24.160;2024-03-22T05:52:33;16.77;;;8.05;;
26530;SDS011;14201;43.188;24.160;2024-03-22T05:54:59;14.10;;;7.53;;
26530;SDS011;14201;43.188;24.160;2024-03-22T05:57:25;12.55;;;7.95;;
26530;SDS011;14201;43.188;24.160;2024-03-22T05:59:50;11.55;;;6.85;;
26530;SDS011;14201;43.188;24.160;2024-03-22T06:02:18;13.20;;;7.28;;
26530;SDS011;14201;43.188;24.160;2024-03-22T06:04:46;10.00;;;6.75;;
26530;SDS011;14201;43.188;24.160;2024-03-22T06:07:12;10.35;;;6.78;;
26530;SDS011;14201;43.188;24.160;2024-03-22T06:09:39;8.75;;;6.65;;
26530;SDS011;14201;43.188;24.160;2024-03-22T06:12:17;11.23;;;6.45;;
26530;SDS011;14201;43.188;24.160;2024-03-22T06:26:17;9.32;;;6.32;;
26530;SDS011;14201;43.188;24.160;2024-03-22T06:28:43;12.93;;;6.45;;
26530;SDS011;14201;43.188;24.160;2024-03-22T06:31:09;8.95;;;5.80;;
26530;SDS011;14201;43.188;24.160;2024-03-22T06:33:34;8.77;;;6.03;;
26530;SDS011;14201;43.188;24.160;2024-03-22T06:36:00;9.32;;;6.15;;
26530;SDS011;14201;43.188;24.160;2024-03-22T06:38:28;8.98;;;5.53;;
26530;SDS011;14201;43.188;24.160;2024-03-22T06:40:53;8.77;;;6.07;;
26530;SDS011;14201;43.188;24.160;2024-03-22T06:43:19;9.27;;;5.57;;
26530;SDS011;14201;43.188;24.160;2024-03-22T06:45:45;6.88;;;5.10;;
26530;SDS011;14201;43.188;24.160;2024-03-22T06:48:10;7.00;;;4.65;;
26530;SDS011;14201;43.188;24.160;2024-03-22T06:50:36;5.88;;;4.13;;
26530;SDS011;14201;43.188;24.160;2024-03-22T06:53:01;6.55;;;4.30;;
26530;SDS011;14201;43.188;24.160;2024-03-22T06:55:27;6.20;;;4.32;;
26530;SDS011;14201;43.188;24.160;2024-03-22T06:57:53;6.43;;;3.67;;
26530;SDS011;14201;43.188;24.160;2024-03-22T07:00:19;6.13;;;3.60;;
26530;SDS011;14201;43.188;24.160;2024-03-22T07:02:44;6.03;;;3.58;;
26530;SDS011;14201;43.188;24.160;2024-03-22T07:05:10;4.93;;;3.20;;
26530;SDS011;14201;43.188;24.160;2024-03-22T07:07:36;5.90;;;3.53;;
26530;SDS011;14201;43.188;24.160;2024-03-22T07:10:03;3.45;;;2.45;;
26530;SDS011;14201;43.188;24.160;2024-03-22T07:12:31;3.65;;;2.63;;
26530;SDS011;14201;43.188;24.160;2024-03-22T07:14:57;5.80;;;2.78;;
26530;SDS011;14201;43.188;24.160;2024-03-22T07:17:24;5.00;;;2.63;;
26530;SDS011;14201;43.188;24.160;2024-03-22T07:19:50;3.30;;;2.33;;
26530;SDS011;14201;43.188;24.160;2024-03-22T07:22:16;3.35;;;2.50;;
26530;SDS011;14201;43.188;24.160;2024-03-22T07:24:43;4.00;;;2.55;;
26530;SDS011;14201;43.188;24.160;2024-03-22T07:27:08;3.70;;;2.58;;
26530;SDS011;14201;43.188;24.160;2024-03-22T07:29:34;3.00;;;2.00;;
26530;SDS011;14201;43.188;24.160;2024-03-22T07:32:00;3.45;;;2.22;;
26530;SDS011;14201;43.188;24.160;2024-03-22T07:34:26;2.58;;;1.80;;
26530;SDS011;14201;43.188;24.160;2024-03-22T07:36:51;7.75;;;1.52;;
26530;SDS011;14201;43.188;24.160;2024-03-22T07:39:17;3.22;;;1.50;;
26530;SDS011;14201;43.188;24.160;2024-03-22T07:41:42;2.40;;;1.70;;
26530;SDS011;14201;43.188;24.160;2024-03-22T07:44:08;5.07;;;1.83;;
26530;SDS011;14201;43.188;24.160;2024-03-22T07:46:33;1.58;;;1.13;;
26530;SDS011;14201;43.188;24.160;2024-03-22T07:48:59;1.83;;;1.38;;
26530;SDS011;14201;43.188;24.160;2024-03-22T07:51:25;2.95;;;1.30;;
26530;SDS011;14201;43.188;24.160;2024-03-22T07:53:51;1.88;;;1.38;;
26530;SDS011;14201;43.188;24.160;2024-03-22T07:56:17;2.03;;;1.30;;
26530;SDS011;14201;43.188;24.160;2024-03-22T07:58:44;5.35;;;1.52;;
26530;SDS011;14201;43.188;24.160;2024-03-22T08:01:09;2.17;;;1.40;;
26530;SDS011;14201;43.188;24.160;2024-03-22T08:03:35;2.55;;;1.65;;
26530;SDS011;14201;43.188;24.160;2024-03-22T08:06:01;1.90;;;1.50;;
26530;SDS011;14201;43.188;24.160;2024-03-22T08:08:27;1.92;;;1.23;;
26530;SDS011;14201;43.188;24.160;2024-03-22T08:10:52;1.90;;;1.50;;
26530;SDS011;14201;43.188;24.160;2024-03-22T08:13:18;2.55;;;1.63;;
26530;SDS011;14201;43.188;24.160;2024-03-22T08:15:43;2.22;;;1.50;;
26530;SDS011;14201;43.188;24.160;2024-03-22T08:18:10;2.55;;;1.52;;
26530;SDS011;14201;43.188;24.160;2024-03-22T08:20:36;2.28;;;1.55;;
26530;SDS011;14201;43.188;24.160;2024-03-22T08:23:04;4.20;;;1.67;;
26530;SDS011;14201;43.188;24.160;2024-03-22T08:25:30;6.32;;;1.70;;
26530;SDS011;14201;43.188;24.160;2024-03-22T08:27:55;2.53;;;1.70;;
26530;SDS011;14201;43.188;24.160;2024-03-22T08:30:22;2.78;;;1.45;;
26530;SDS011;14201;43.188;24.160;2024-03-22T08:32:48;3.60;;;2.50;;
26530;SDS011;14201;43.188;24.160;2024-03-22T08:35:13;2.30;;;1.65;;
26530;SDS011;14201;43.188;24.160;2024-03-22T08:37:39;6.40;;;1.60;;
26530;SDS011;14201;43.188;24.160;2024-03-22T08:40:05;2.10;;;1.40;;
26530;SDS011;14201;43.188;24.160;2024-03-22T08:42:32;2.28;;;1.30;;
26530;SDS011;14201;43.188;24.160;2024-03-22T08:44:58;2.72;;;1.30;;
26530;SDS011;14201;43.188;24.160;2024-03-22T08:47:24;1.50;;;1.20;;
26530;SDS011;14201;43.188;24.160;2024-03-22T08:49:49;3.42;;;1.40;;
26530;SDS011;14201;43.188;24.160;2024-03-22T08:52:15;1.63;;;1.33;;
26530;SDS011;14201;43.188;24.160;2024-03-22T08:54:41;6.95;;;1.80;;
26530;SDS011;14201;43.188;24.160;2024-03-22T08:57:06;2.05;;;1.25;;
26530;SDS011;14201;43.188;24.160;2024-03-22T08:59:32;2.35;;;1.20;;
26530;SDS011;14201;43.188;24.160;2024-03-22T09:01:57;1.42;;;1.30;;
26530;SDS011;14201;43.188;24.160;2024-03-22T09:04:24;1.75;;;1.13;;
26530;SDS011;14201;43.188;24.160;2024-03-22T09:06:50;1.55;;;1.40;;
26530;SDS011;14201;43.188;24.160;2024-03-22T09:09:16;1.23;;;1.10;;
26530;SDS011;14201;43.188;24.160;2024-03-22T09:11:42;1.45;;;1.30;;
26530;SDS011;14201;43.188;24.160;2024-03-22T09:14:07;1.42;;;1.10;;
26530;SDS011;14201;43.188;24.160;2024-03-22T09:16:33;7.63;;;1.48;;
26530;SDS011;14201;43.188;24.160;2024-03-22T09:18:59;1.27;;;1.17;;
26530;SDS011;14201;43.188;24.160;2024-03-22T09:21:25;2.72;;;1.58;;
26530;SDS011;14201;43.188;24.160;2024-03-22T09:23:50;2.15;;;1.50;;
26530;SDS011;14201;43.188;24.160;2024-03-22T09:26:16;2.10;;;1.60;;
26530;SDS011;14201;43.188;24.160;2024-03-22T09:28:41;7.93;;;1.50;;
26530;SDS011;14201;43.188;24.160;2024-03-22T09:31:07;1.70;;;1.27;;
26530;SDS011;14201;43.188;24.160;2024-03-22T09:33:33;2.28;;;1.40;;
26530;SDS011;14201;43.188;24.160;2024-03-22T09:35:59;1.83;;;1.48;;
26530;SDS011;14201;43.188;24.160;2024-03-22T09:38:25;2.92;;;1.20;;
26530;SDS011;14201;43.188;24.160;2024-03-22T09:40:51;26.70;;;2.17;;
26530;SDS011;14201;43.188;24.160;2024-03-22T09:43:19;1.67;;;1.27;;
26530;SDS011;14201;43.188;24.160;2024-03-22T09:45:51;2.38;;;1.40;;
26530;SDS011;14201;43.188;24.160;2024-03-22T09:48:17;1.98;;;1.40;;
26530;SDS011;14201;43.188;24.160;2024-03-22T09:50:44;1.50;;;1.20;;
26530;SDS011;14201;43.188;24.160;2024-03-22T09:53:11;1.88;;;1.30;;
26530;SDS011;14201;43.188;24.160;2024-03-22T09:55:38;12.43;;;1.83;;
26530;SDS011;14201;43.188;24.160;2024-03-22T09:58:08;3.22;;;1.80;;
26530;SDS011;14201;43.188;24.160;2024-03-22T10:00:35;2.22;;;1.70;;
26530;SDS011;14201;43.188;24.160;2024-03-22T10:03:00;2.97;;;1.65;;
26530;SDS011;14201;43.188;24.160;2024-03-22T10:05:27;2.00;;;1.50;;
26530;SDS011;14201;43.188;24.160;2024-03-22T10:07:53;2.80;;;1.65;;
26530;SDS011;14201;43.188;24.160;2024-03-22T10:10:19;2.33;;;1.60;;
26530;SDS011;14201;43.188;24.160;2024-03-22T10:12:44;1.63;;;1.30;;
26530;SDS011;14201;43.188;24.160;2024-03-22T10:15:10;1.95;;;1.40;;
26530;SDS011;14201;43.188;24.160;2024-03-22T10:17:38;1.85;;;1.50;;
26530;SDS011;14201;43.188;24.160;2024-03-22T10:20:04;4.93;;;2.08;;
26530;SDS011;14201;43.188;24.160;2024-03-22T10:22:37;2.20;;;1.77;;
26530;SDS011;14201;43.188;24.160;2024-03-22T10:25:06;2.25;;;1.88;;
26530;SDS011;14201;43.188;24.160;2024-03-22T10:27:32;5.03;;;2.03;;
26530;SDS011;14201;43.188;24.160;2024-03-22T10:29:57;3.13;;;2.42;;
26530;SDS011;14201;43.188;24.160;2024-03-22T10:32:24;2.92;;;2.28;;
26530;SDS011;14201;43.188;24.160;2024-03-22T10:34:50;177.25;;;9.45;;
26530;SDS011;14201;43.188;24.160;2024-03-22T10:37:16;10.57;;;2.15;;
26530;SDS011;14201;43.188;24.160;2024-03-22T10:39:42;3.10;;;2.30;;
26530;SDS011;14201;43.188;24.160;2024-03-22T10:42:11;2.80;;;1.90;;
26530;SDS011;14201;43.188;24.160;2024-03-22T10:44:37;4.82;;;2.30;;
26530;SDS011;14201;43.188;24.160;2024-03-22T10:47:04;3.88;;;2.33;;
26530;SDS011;14201;43.188;24.160;2024-03-22T10:49:31;3.20;;;1.80;;
26530;SDS011;14201;43.188;24.160;2024-03-22T10:52:01;2.85;;;1.48;;
26530;SDS011;14201;43.188;24.160;2024-03-22T10:54:30;1.90;;;1.60;;
26530;SDS011;14201;43.188;24.160;2024-03-22T10:57:00;2.97;;;2.03;;
26530;SDS011;14201;43.188;24.160;2024-03-22T10:59:26;2.58;;;1.80;;
26530;SDS011;14201;43.188;24.160;2024-03-22T11:01:52;3.42;;;1.63;;
26530;SDS011;14201;43.188;24.160;2024-03-22T11:04:19;1.90;;;1.50;;
26530;SDS011;14201;43.188;24.160;2024-03-22T11:06:49;16.52;;;2.38;;
26530;SDS011;14201;43.188;24.160;2024-03-22T11:09:22;2.17;;;1.58;;
26530;SDS011;14201;43.188;24.160;2024-03-22T11:11:48;5.43;;;1.90;;
26530;SDS011;14201;43.188;24.160;2024-03-22T11:14:16;4.32;;;1.70;;
26530;SDS011;14201;43.188;24.160;2024-03-22T11:16:45;3.47;;;1.60;;
26530;SDS011;14201;43.188;24.160;2024-03-22T11:19:11;3.13;;;1.80;;
26530;SDS011;14201;43.188;24.160;2024-03-22T11:21:37;2.30;;;1.85;;
26530;SDS011;14201;43.188;24.160;2024-03-22T11:24:04;3.58;;;2.50;;
26530;SDS011;14201;43.188;24.160;2024-03-22T11:26:31;2.30;;;1.77;;
26530;SDS011;14201;43.188;24.160;2024-03-22T11:28:59;5.10;;;1.90;;
26530;SDS011;14201;43.188;24.160;2024-03-22T11:31:25;3.08;;;2.00;;
26530;SDS011;14201;43.188;24.160;2024-03-22T11:33:55;4.72;;;2.30;;
26530;SDS011;14201;43.188;24.160;2024-03-22T11:36:21;2.67;;;1.85;;
26530;SDS011;14201;43.188;24.160;2024-03-22T11:38:47;6.40;;;2.00;;
26530;SDS011;14201;43.188;24.160;2024-03-22T11:41:16;3.10;;;2.17;;
26530;SDS011;14201;43.188;24.160;2024-03-22T11:43:44;3.55;;;2.25;;
26530;SDS011;14201;43.188;24.160;2024-03-22T11:46:11;2.70;;;2.05;;
26530;SDS011;14201;43.188;24.160;2024-03-22T11:48:40;3.05;;;2.15;;
26530;SDS011;14201;43.188;24.160;2024-03-22T11:51:07;2.75;;;1.67;;
26530;SDS011;14201;43.188;24.160;2024-03-22T11:53:34;6.35;;;2.08;;
26530;SDS011;14201;43.188;24.160;2024-03-22T11:56:00;3.28;;;2.10;;
26530;SDS011;14201;43.188;24.160;2024-03-22T11:58:28;4.38;;;2.42;;
26530;SDS011;14201;43.188;24.160;2024-03-22T12:00:55;2.53;;;1.92;;
26530;SDS011;14201;43.188;24.160;2024-03-22T12:03:22;3.22;;;2.47;;
26530;SDS011;14201;43.188;24.160;2024-03-22T12:05:47;3.17;;;2.25;;
26530;SDS011;14201;43.188;24.160;2024-03-22T12:08:16;3.78;;;2.30;;
26530;SDS011;14201;43.188;24.160;2024-03-22T12:10:43;3.60;;;2.45;;
26530;SDS011;14201;43.188;24.160;2024-03-22T12:13:09;3.17;;;2.30;;
26530;SDS011;14201;43.188;24.160;2024-03-22T12:15:34;4.10;;;2.13;;
26530;SDS011;14201;43.188;24.160;2024-03-22T12:18:01;3.38;;;2.20;;
26530;SDS011;14201;43.188;24.160;2024-03-22T12:20:27;12.23;;;2.20;;
26530;SDS011;14201;43.188;24.160;2024-03-22T12:30:10;5.05;;;2.10;;
26530;SDS011;14201;43.188;24.160;2024-03-22T12:32:36;3.65;;;2.35;;
26530;SDS011;14201;43.188;24.160;2024-03-22T12:35:01;3.25;;;1.73;;
26530;SDS011;14201;43.188;24.160;2024-03-22T12:37:27;7.38;;;2.65;;
26530;SDS011;14201;43.188;24.160;2024-03-22T12:39:53;3.00;;;2.40;;
26530;SDS011;14201;43.188;24.160;2024-03-22T12:42:19;4.90;;;2.60;;
26530;SDS011;14201;43.188;24.160;2024-03-22T12:44:45;3.50;;;2.35;;
26530;SDS011;14201;43.188;24.160;2024-03-22T12:47:10;4.00;;;2.45;;
26530;SDS011;14201;43.188;24.160;2024-03-22T12:49:36;4.00;;;2.42;;
26530;SDS011;14201;43.188;24.160;2024-03-22T12:52:02;3.45;;;2.33;;
26530;SDS011;14201;43.188;24.160;2024-03-22T12:54:28;3.72;;;2.20;;
26530;SDS011;14201;43.188;24.160;2024-03-22T12:56:53;3.53;;;2.30;;
26530;SDS011;14201;43.188;24.160;2024-03-22T12:59:19;6.70;;;2.40;;
26530;SDS011;14201;43.188;24.160;2024-03-22T13:01:44;4.28;;;2.38;;
26530;SDS011;14201;43.188;24.160;2024-03-22T13:04:10;7.43;;;2.40;;
26530;SDS011;14201;43.188;24.160;2024-03-22T13:06:36;9.73;;;2.65;;
26530;SDS011;14201;43.188;24.160;2024-03-22T13:09:02;7.55;;;2.65;;
26530;SDS011;14201;43.188;24.160;2024-03-22T13:11:30;2.80;;;2.30;;
26530;SDS011;14201;43.188;24.160;2024-03-22T13:13:56;5.35;;;2.47;;
26530;SDS011;14201;43.188;24.160;2024-03-22T13:16:22;7.22;;;2.50;;
26530;SDS011;14201;43.188;24.160;2024-03-22T13:18:48;3.55;;;2.22;;
26530;SDS011;14201;43.188;24.160;2024-03-22T13:21:13;8.30;;;2.63;;
26530;SDS011;14201;43.188;24.160;2024-03-22T13:23:39;4.78;;;2.75;;
26530;SDS011;14201;43.188;24.160;2024-03-22T13:26:05;8.82;;;2.80;;
26530;SDS011;14201;43.188;24.160;2024-03-22T13:28:31;22.75;;;3.67;;
26530;SDS011;14201;43.188;24.160;2024-03-22T13:31:01;3.15;;;2.25;;
26530;SDS011;14201;43.188;24.160;2024-03-22T13:33:34;8.55;;;2.58;;
26530;SDS011;14201;43.188;24.160;2024-03-22T13:36:00;22.77;;;3.60;;
26530;SDS011;14201;43.188;24.160;2024-03-22T13:38:26;8.45;;;2.92;;
26530;SDS011;14201;43.188;24.160;2024-03-22T13:40:57;9.93;;;2.55;;
26530;SDS011;14201;43.188;24.160;2024-03-22T13:43:29;7.07;;;2.30;;
26530;SDS011;14201;43.188;24.160;2024-03-22T13:45:55;4.85;;;2.60;;
26530;SDS011;14201;43.188;24.160;2024-03-22T13:48:21;3.45;;;2.42;;
26530;SDS011;14201;43.188;24.160;2024-03-22T13:50:51;5.50;;;2.83;;
26530;SDS011;14201;43.188;24.160;2024-03-22T13:53:17;4.90;;;2.80;;
26530;SDS011;14201;43.188;24.160;2024-03-22T13:55:43;6.68;;;3.58;;
26530;SDS011;14201;43.188;24.160;2024-03-22T13:58:09;4.82;;;3.00;;
26530;SDS011;14201;43.188;24.160;2024-03-22T14:00:35;5.15;;;2.65;;
26530;SDS011;14201;43.188;24.160;2024-03-22T14:03:01;8.98;;;2.83;;
26530;SDS011;14201;43.188;24.160;2024-03-22T14:05:27;5.72;;;2.92;;
26530;SDS011;14201;43.188;24.160;2024-03-22T14:07:52;5.15;;;3.00;;
26530;SDS011;14201;43.188;24.160;2024-03-22T14:10:18;5.05;;;2.40;;
26530;SDS011;14201;43.188;24.160;2024-03-22T14:12:45;5.20;;;2.80;;
26530;SDS011;14201;43.188;24.160;2024-03-22T14:15:12;3.17;;;2.55;;
26530;SDS011;14201;43.188;24.160;2024-03-22T14:17:38;3.40;;;2.30;;
26530;SDS011;14201;43.188;24.160;2024-03-22T14:20:04;3.05;;;2.25;;
26530;SDS011;14201;43.188;24.160;2024-03-22T14:22:37;15.60;;;3.58;;
26530;SDS011;14201;43.188;24.160;2024-03-22T14:25:06;5.93;;;2.60;;
26530;SDS011;14201;43.188;24.160;2024-03-22T14:27:33;3.40;;;2.70;;
26530;SDS011;14201;43.188;24.160;2024-03-22T14:30:03;3.35;;;2.55;;
26530;SDS011;14201;43.188;24.160;2024-03-22T14:32:33;3.20;;;2.33;;
26530;SDS011;14201;43.188;24.160;2024-03-22T14:35:00;4.18;;;2.70;;
26530;SDS011;14201;43.188;24.160;2024-03-22T14:37:26;3.42;;;2.28;;
26530;SDS011;14201;43.188;24.160;2024-03-22T14:39:52;5.72;;;2.55;;
26530;SDS011;14201;43.188;24.160;2024-03-22T14:42:17;4.82;;;3.00;;